Pagina principale
METAR-TAF:

METAR-TAF

Aeroporti :

Alpnach, Svizzera

latitudine: 46-56-19N, longitudine: 8-17-03E, altezza: 440 m

Osservazione

Il bollettino è stato emesso 30 minuti fa, alle 11:50 UTC
Vento calmo
Temperature 4°C
Umidità 93%
Pressione 1020 hPa
Visibilità 10 km o più
Nubi sparse ad un'altezza di 600 ft
Nuvoloso ad un'altezza di 3400 ft
rovesci di pioggia

METAR: LSMA 191150Z AUTO 00000KT 9999NDV -SHRA SCT006 BKN034 04/03 Q1020 RMK

Ora: 13:20 (12:20 UTC)


TAF: mancante

Osservazioni e previsioni meteorologiche di più di 4000 aeroporti (messaggi METAR e TAF).

Le stazioni disponibili sono rappresentate dai dischi gialli e rossi sulla carta.

Puntare il mouse per vedere il nome della stazione.

Clicca sopra per visualizzare le osservazioni e previsioni meteorologiche.

Per cambiare la mappa : fare clic sui pulsanti verdi con una croce nera per ingrandire, il pulsante verde con un trattino per diminuire, o sulla freccia verde per le mappe adiacenti.


METAR-TAF: